createdAt,value
2022-10-01T00:02:08.497Z,86.35
2022-10-01T00:04:37.654Z,86.49
2022-10-01T00:07:09.546Z,86.21
2022-10-01T00:09:37.691Z,86.12
2022-10-01T00:12:05.519Z,85.57
2022-10-01T00:14:33.014Z,85.67
2022-10-01T00:17:00.822Z,85.61
2022-10-01T00:19:28.565Z,85.76
2022-10-01T00:21:55.960Z,85.82
2022-10-01T00:24:23.941Z,85.91
2022-10-01T00:26:51.363Z,86.25
2022-10-01T00:29:18.802Z,86.32
2022-10-01T00:31:46.574Z,86.11
2022-10-01T00:34:15.501Z,86.08
2022-10-01T00:36:43.079Z,86.07
2022-10-01T00:39:12.201Z,86.11
2022-10-01T00:41:40.260Z,86.11
2022-10-01T00:44:36.820Z,86.38
2022-10-01T00:47:35.161Z,86.22
2022-10-01T00:50:23.104Z,86.30
2022-10-01T00:52:55.038Z,86.27
2022-10-01T00:55:28.590Z,86.27
2022-10-01T00:57:56.800Z,86.01
2022-10-01T01:00:25.170Z,86.17
2022-10-01T01:02:52.640Z,86.48
2022-10-01T01:05:20.401Z,86.71
2022-10-01T01:07:50.171Z,86.54
2022-10-01T01:10:23.800Z,86.95
2022-10-01T01:13:24.104Z,86.94
2022-10-01T01:15:55.689Z,86.25
2022-10-01T01:18:31.694Z,85.97
2022-10-01T01:21:14.187Z,86.07
2022-10-01T01:24:06.687Z,86.45
2022-10-01T01:26:42.311Z,86.73
2022-10-01T01:29:30.285Z,86.91
2022-10-01T01:32:03.097Z,86.99
2022-10-01T01:34:32.718Z,86.90
2022-10-01T01:37:12.227Z,86.58
2022-10-01T01:39:46.301Z,86.69
2022-10-01T01:42:24.148Z,86.85
2022-10-01T01:44:54.497Z,86.98
2022-10-01T01:47:24.998Z,87.45
2022-10-01T01:49:53.360Z,87.28
2022-10-01T01:52:20.777Z,87.01
2022-10-01T01:54:50.369Z,87.12
2022-10-01T01:57:20.011Z,87.21
2022-10-01T01:59:47.512Z,86.92
2022-10-01T02:02:20.182Z,87.08
2022-10-01T02:05:00.288Z,87.16
2022-10-01T02:07:36.617Z,87.34
2022-10-01T02:10:34.828Z,87.10
2022-10-01T02:13:08.306Z,86.83
2022-10-01T02:15:55.309Z,86.43
2022-10-01T02:18:34.660Z,86.98
2022-10-01T02:21:20.731Z,87.31
2022-10-01T02:24:05.564Z,86.71
2022-10-01T02:26:36.155Z,86.88
2022-10-01T02:29:08.258Z,87.16
2022-10-01T02:31:36.329Z,87.56
2022-10-01T02:34:11.069Z,87.53
2022-10-01T02:36:42.560Z,87.40
2022-10-01T02:39:11.528Z,87.40
2022-10-01T02:41:39.060Z,87.49
2022-10-01T02:44:12.495Z,87.61
2022-10-01T02:47:08.552Z,87.91
2022-10-01T02:49:38.049Z,87.98
2022-10-01T02:52:23.448Z,87.49
2022-10-01T02:55:12.286Z,87.36
2022-10-01T02:57:39.881Z,87.80
2022-10-01T03:00:14.394Z,88.21
2022-10-01T03:02:42.034Z,88.15
2022-10-01T03:05:09.816Z,87.80
2022-10-01T03:07:37.981Z,87.88
2022-10-01T03:10:06.246Z,87.92
2022-10-01T03:12:34.628Z,88.03
2022-10-01T03:15:02.706Z,87.93
2022-10-01T03:17:30.218Z,88.05
2022-10-01T03:19:57.902Z,87.82
2022-10-01T03:22:25.604Z,87.79
2022-10-01T03:24:54.089Z,88.06
2022-10-01T03:27:21.919Z,88.07
2022-10-01T03:29:50.206Z,87.98
2022-10-01T03:32:18.006Z,88.09
2022-10-01T03:34:45.849Z,88.08
2022-10-01T03:37:13.271Z,87.69
2022-10-01T03:39:40.697Z,87.55
2022-10-01T03:42:08.412Z,87.50
2022-10-01T03:44:35.874Z,87.65
2022-10-01T03:47:03.352Z,88.02
2022-10-01T03:49:31.037Z,88.11
2022-10-01T03:51:59.261Z,88.13
2022-10-01T03:54:26.683Z,87.92
2022-10-01T03:56:54.400Z,88.00
2022-10-01T03:59:22.230Z,87.85
2022-10-01T04:01:49.761Z,88.26
2022-10-01T04:04:17.524Z,88.13
2022-10-01T04:06:44.939Z,88.26
2022-10-01T04:09:12.363Z,88.54
2022-10-01T04:11:40.067Z,88.43
2022-10-01T04:14:07.528Z,88.23
2022-10-01T04:16:36.202Z,88.31
2022-10-01T04:19:04.947Z,88.22
2022-10-01T04:21:32.679Z,88.39
2022-10-01T04:24:01.155Z,88.63
2022-10-01T04:26:28.831Z,88.71
2022-10-01T04:28:56.279Z,88.47
2022-10-01T04:31:26.830Z,88.26
2022-10-01T04:33:57.092Z,88.50
2022-10-01T04:36:25.476Z,88.60
2022-10-01T04:38:57.855Z,88.46
2022-10-01T04:41:26.162Z,88.28
2022-10-01T04:43:53.576Z,88.43
2022-10-01T04:46:21.180Z,88.60
2022-10-01T04:48:49.572Z,88.26
2022-10-01T04:51:17.632Z,88.23
2022-10-01T04:53:44.989Z,88.61
2022-10-01T04:56:12.707Z,88.66
2022-10-01T04:58:40.283Z,88.84
2022-10-01T05:01:07.777Z,88.93
2022-10-01T05:03:35.643Z,88.76
2022-10-01T05:06:03.038Z,88.68
2022-10-01T05:08:31.157Z,88.34
2022-10-01T05:11:00.415Z,87.61
2022-10-01T05:13:30.307Z,88.28
2022-10-01T05:15:59.011Z,87.65
2022-10-01T05:18:26.838Z,87.50
2022-10-01T05:20:54.194Z,88.26
2022-10-01T05:23:21.793Z,88.14
2022-10-01T05:25:49.653Z,88.23
2022-10-01T05:28:22.142Z,88.06
2022-10-01T05:30:51.297Z,87.70
2022-10-01T05:33:18.809Z,87.53
2022-10-01T05:35:46.217Z,87.97
2022-10-01T05:38:13.915Z,88.07
2022-10-01T05:40:46.234Z,88.73
2022-10-01T05:43:14.972Z,88.55
2022-10-01T05:45:43.141Z,88.22
2022-10-01T05:48:11.146Z,88.10
2022-10-01T05:50:40.415Z,88.15
2022-10-01T05:53:09.881Z,88.35
2022-10-01T05:55:37.566Z,88.71
2022-10-01T05:58:07.439Z,88.54
2022-10-01T06:00:35.948Z,88.25
2022-10-01T06:03:05.325Z,88.40
2022-10-01T06:05:35.010Z,88.71
2022-10-01T06:08:05.237Z,88.37
2022-10-01T06:10:33.180Z,88.47
2022-10-01T06:13:01.968Z,88.96
2022-10-01T06:15:29.778Z,88.89
2022-10-01T06:18:02.166Z,88.95
2022-10-01T06:20:29.588Z,89.19
2022-10-01T06:22:58.187Z,89.29
2022-10-01T06:25:29.085Z,88.96
2022-10-01T06:27:59.471Z,89.01
2022-10-01T06:30:29.221Z,89.05
2022-10-01T06:33:02.857Z,89.33
2022-10-01T06:35:34.487Z,89.34
2022-10-01T06:38:02.703Z,89.24
2022-10-01T06:40:31.188Z,89.28
2022-10-01T06:42:59.130Z,89.20
2022-10-01T06:45:28.302Z,89.21
2022-10-01T06:48:03.060Z,89.30
2022-10-01T06:50:32.211Z,89.21
2022-10-01T06:53:01.384Z,89.15
2022-10-01T06:55:31.801Z,89.02
2022-10-01T06:58:02.663Z,88.85
2022-10-01T07:00:32.675Z,88.78
2022-10-01T07:03:01.174Z,89.44
2022-10-01T07:05:28.610Z,89.52
2022-10-01T07:07:56.126Z,89.74
2022-10-01T07:10:24.408Z,89.65
2022-10-01T07:12:51.876Z,89.32
2022-10-01T07:15:22.827Z,89.29
2022-10-01T07:17:51.952Z,89.06
2022-10-01T07:20:20.908Z,89.72
2022-10-01T07:22:49.692Z,89.80
2022-10-01T07:25:17.627Z,89.32
2022-10-01T07:27:45.098Z,89.16
2022-10-01T07:30:12.542Z,88.27
2022-10-01T07:32:43.879Z,87.15
2022-10-01T07:35:11.405Z,86.95
2022-10-01T07:37:38.783Z,84.46
2022-10-01T07:40:07.724Z,83.19
2022-10-01T07:42:36.168Z,81.15
2022-10-01T07:45:06.616Z,79.28
2022-10-01T07:47:34.433Z,77.75
2022-10-01T07:50:02.405Z,76.26
2022-10-01T07:52:29.774Z,74.75
2022-10-01T07:54:58.179Z,71.92
2022-10-01T07:57:25.566Z,71.71
2022-10-01T07:59:55.841Z,72.99
2022-10-01T08:02:23.952Z,73.03
2022-10-01T08:05:10.344Z,72.85
2022-10-01T08:07:37.776Z,71.07
2022-10-01T08:10:05.932Z,68.95
2022-10-01T08:12:33.428Z,69.73
2022-10-01T08:15:02.285Z,68.89
2022-10-01T08:17:30.414Z,68.89
2022-10-01T08:19:57.780Z,69.01
2022-10-01T08:22:25.135Z,68.95
2022-10-01T08:24:52.866Z,69.88
2022-10-01T08:27:20.276Z,70.36
2022-10-01T08:29:48.244Z,69.71
2022-10-01T08:32:15.896Z,68.79
2022-10-01T08:34:43.296Z,68.95
2022-10-01T08:37:10.768Z,68.35
2022-10-01T08:39:38.541Z,67.93
2022-10-01T08:42:35.230Z,68.82
2022-10-01T08:45:13.749Z,68.57
2022-10-01T08:47:47.170Z,70.30
2022-10-01T08:50:17.607Z,72.15
2022-10-01T08:52:54.900Z,73.24
2022-10-01T08:55:26.355Z,73.17
2022-10-01T08:57:58.972Z,73.84
2022-10-01T09:00:29.411Z,73.04
2022-10-01T09:03:00.440Z,73.91
2022-10-01T09:05:52.950Z,73.98
2022-10-01T09:08:57.896Z,75.42
2022-10-01T09:11:34.711Z,76.29
2022-10-01T09:14:28.334Z,76.88
2022-10-01T09:17:21.832Z,77.58
2022-10-01T09:20:18.095Z,77.00
2022-10-01T09:22:52.825Z,79.12
2022-10-01T09:25:24.135Z,78.99
2022-10-01T09:28:00.882Z,79.72
2022-10-01T09:30:30.163Z,79.12
2022-10-01T09:33:30.138Z,80.71
2022-10-01T09:36:06.567Z,81.57
2022-10-01T09:38:46.153Z,80.21
2022-10-01T09:41:14.822Z,81.14
2022-10-01T09:43:43.993Z,81.29
2022-10-01T09:46:17.472Z,82.29
2022-10-01T09:49:02.330Z,83.03
2022-10-01T09:51:41.110Z,83.36
2022-10-01T09:54:15.297Z,82.56
2022-10-01T09:56:48.371Z,82.53
2022-10-01T09:59:29.872Z,83.09
2022-10-01T10:02:01.345Z,83.02
2022-10-01T10:04:29.319Z,84.03
2022-10-01T10:07:05.697Z,84.87
2022-10-01T10:09:35.964Z,84.94
2022-10-01T10:12:03.660Z,84.81
2022-10-01T10:14:37.389Z,83.08
2022-10-01T10:17:21.215Z,82.93
2022-10-01T10:19:51.913Z,80.60
2022-10-01T10:22:25.827Z,82.99
2022-10-01T10:24:58.938Z,82.17
2022-10-01T10:27:29.470Z,82.09
2022-10-01T10:30:14.886Z,82.62
2022-10-01T10:32:45.140Z,83.05
2022-10-01T10:35:19.126Z,84.06
2022-10-01T10:37:54.844Z,83.24
2022-10-01T10:40:32.129Z,82.45
2022-10-01T10:43:00.707Z,82.30
2022-10-01T10:45:38.781Z,82.64
2022-10-01T10:48:12.635Z,82.53
2022-10-01T10:50:43.619Z,82.68
2022-10-01T10:53:19.914Z,81.69
2022-10-01T10:56:01.932Z,82.42
2022-10-01T10:58:33.321Z,82.66
2022-10-01T11:01:06.292Z,81.67
2022-10-01T11:03:38.263Z,82.02
2022-10-01T11:06:14.904Z,82.62
2022-10-01T11:08:43.512Z,82.18
2022-10-01T11:11:38.300Z,82.29
2022-10-01T11:14:27.493Z,83.23
2022-10-01T11:17:00.667Z,83.55
2022-10-01T11:19:39.092Z,84.22
2022-10-01T11:22:13.387Z,84.53
2022-10-01T11:25:41.499Z,84.20
2022-10-01T11:28:41.057Z,84.66
2022-10-01T11:31:33.358Z,84.99
2022-10-01T11:34:28.351Z,84.85
2022-10-01T11:37:24.279Z,84.18
2022-10-01T11:39:55.835Z,84.42
2022-10-01T11:42:34.683Z,84.63
2022-10-01T11:45:17.900Z,85.01
2022-10-01T11:47:55.649Z,84.06
2022-10-01T11:50:39.327Z,83.79
2022-10-01T11:53:20.084Z,83.85
2022-10-01T11:56:19.807Z,84.15
2022-10-01T11:58:57.420Z,84.04
2022-10-01T12:01:27.969Z,83.95
2022-10-01T12:04:28.867Z,84.25
2022-10-01T12:06:58.852Z,84.31
2022-10-01T12:09:53.556Z,84.35
2022-10-01T12:12:39.124Z,84.24
2022-10-01T12:15:16.671Z,84.38
2022-10-01T12:17:53.102Z,83.71
2022-10-01T12:20:47.622Z,83.54
2022-10-01T12:23:20.740Z,83.25
2022-10-01T12:26:22.274Z,82.96
2022-10-01T12:29:02.353Z,82.79
2022-10-01T12:34:53.840Z,82.33
2022-10-01T12:37:41.911Z,82.42
2022-10-01T12:40:12.118Z,82.26
2022-10-01T12:43:04.871Z,81.54
2022-10-01T12:46:04.397Z,81.77
2022-10-01T12:48:38.263Z,80.88
2022-10-01T12:51:22.478Z,80.55
2022-10-01T12:54:13.338Z,80.06
2022-10-01T12:56:48.767Z,79.87
2022-10-01T12:59:31.372Z,77.54
2022-10-01T13:02:04.924Z,76.38
2022-10-01T13:04:51.147Z,74.08
2022-10-01T13:07:27.352Z,72.69
2022-10-01T13:10:15.904Z,70.09
2022-10-01T13:12:43.239Z,68.84
2022-10-01T13:15:22.352Z,68.58
2022-10-01T13:18:20.081Z,67.28
2022-10-01T13:21:23.168Z,66.88
2022-10-01T13:24:05.055Z,65.48
2022-10-01T13:26:47.063Z,65.08
2022-10-01T13:29:54.808Z,65.10
2022-10-01T13:32:28.533Z,63.83
2022-10-01T13:34:57.955Z,64.12
2022-10-01T13:37:35.243Z,65.44
2022-10-01T13:40:05.267Z,65.02
2022-10-01T13:43:02.188Z,64.48
2022-10-01T13:45:37.182Z,63.96
2022-10-01T13:48:21.079Z,64.03
2022-10-01T13:51:03.836Z,63.53
2022-10-01T13:53:36.168Z,63.05
2022-10-01T13:56:05.145Z,63.04
2022-10-01T13:58:40.283Z,63.70
2022-10-01T14:01:29.356Z,62.67
2022-10-01T14:04:20.127Z,63.34
2022-10-01T14:07:19.372Z,63.06
2022-10-01T14:09:52.022Z,64.07
2022-10-01T14:12:53.002Z,64.40
2022-10-01T14:15:46.404Z,64.80
2022-10-01T14:18:20.960Z,65.13
2022-10-01T14:20:54.328Z,65.09
2022-10-01T14:23:33.741Z,64.83
2022-10-01T14:26:15.687Z,64.85
2022-10-01T14:28:58.323Z,64.46
2022-10-01T14:31:47.460Z,64.86
2022-10-01T14:34:28.345Z,64.57
2022-10-01T14:36:56.356Z,64.81
2022-10-01T14:39:29.473Z,64.79
2022-10-01T14:41:58.088Z,64.67
2022-10-01T14:44:31.958Z,64.78
2022-10-01T14:47:00.667Z,65.25
2022-10-01T14:49:30.548Z,65.78
2022-10-01T14:52:04.306Z,66.57
2022-10-01T14:54:45.090Z,67.59
2022-10-01T14:57:22.736Z,68.44
2022-10-01T14:59:50.716Z,68.82
2022-10-01T15:02:20.790Z,69.08
2022-10-01T15:04:52.721Z,69.79
2022-10-01T15:07:20.890Z,70.29
2022-10-01T15:09:49.486Z,71.12
2022-10-01T15:12:20.156Z,71.14
2022-10-01T15:14:53.625Z,72.15
2022-10-01T15:17:26.901Z,72.79
2022-10-01T15:19:56.700Z,73.46
2022-10-01T15:22:29.672Z,74.08
2022-10-01T15:25:00.963Z,74.56
2022-10-01T15:27:28.986Z,74.86
2022-10-01T15:29:58.884Z,75.68
2022-10-01T15:32:28.307Z,75.96
2022-10-01T15:34:59.869Z,76.31
2022-10-01T15:37:32.582Z,76.37
2022-10-01T15:40:01.116Z,76.70
2022-10-01T15:42:32.857Z,76.82
2022-10-01T15:45:09.804Z,77.05
2022-10-01T15:47:51.663Z,77.44
2022-10-01T15:50:21.953Z,77.81
2022-10-01T15:53:17.885Z,78.04
2022-10-01T15:55:58.166Z,78.24
2022-10-01T15:58:35.198Z,78.40
2022-10-01T16:01:04.936Z,78.89
2022-10-01T16:03:40.038Z,79.14
2022-10-01T16:06:23.700Z,79.33
2022-10-01T16:09:06.713Z,79.64
2022-10-01T16:12:18.322Z,79.96
2022-10-01T16:15:00.592Z,80.17
2022-10-01T16:17:30.692Z,80.70
2022-10-01T16:20:34.181Z,80.81
2022-10-01T16:23:39.435Z,81.04
2022-10-01T16:26:29.997Z,81.45
2022-10-01T16:29:02.320Z,81.89
2022-10-01T16:31:31.165Z,82.12
2022-10-01T16:33:58.644Z,82.31
2022-10-01T16:36:26.431Z,82.42
2022-10-01T16:38:54.216Z,82.62
2022-10-01T16:41:26.160Z,82.92
2022-10-01T16:43:57.239Z,82.79
2022-10-01T16:46:24.766Z,83.16
2022-10-01T16:48:52.306Z,83.24
2022-10-01T16:51:21.917Z,83.49
2022-10-01T16:53:50.178Z,83.65
2022-10-01T16:56:17.625Z,83.96
2022-10-01T16:58:45.812Z,84.20
2022-10-01T17:01:16.057Z,84.26
2022-10-01T17:03:43.475Z,84.29
2022-10-01T17:06:11.175Z,84.30
2022-10-01T17:08:38.525Z,84.39
2022-10-01T17:11:09.500Z,84.62
2022-10-01T17:13:39.735Z,84.87
2022-10-01T17:16:07.293Z,84.93
2022-10-01T17:18:34.706Z,85.12
2022-10-01T17:21:04.351Z,84.89
2022-10-01T17:23:31.784Z,84.97
2022-10-01T17:25:59.216Z,85.17
2022-10-01T17:28:27.054Z,84.86
2022-10-01T17:30:54.502Z,84.95
2022-10-01T17:33:22.510Z,85.16
2022-10-01T17:35:55.648Z,85.22
2022-10-01T17:38:23.253Z,85.34
2022-10-01T17:40:56.526Z,85.27
2022-10-01T17:43:24.487Z,85.36
2022-10-01T17:45:57.588Z,85.37
2022-10-01T17:48:26.543Z,85.68
2022-10-01T17:51:06.442Z,85.87
2022-10-01T17:53:41.355Z,85.76
2022-10-01T17:56:14.619Z,85.70
2022-10-01T17:58:45.276Z,85.77
2022-10-01T18:01:19.630Z,85.80
2022-10-01T18:03:48.024Z,85.60
2022-10-01T18:06:16.264Z,85.58
2022-10-01T18:08:55.027Z,85.74
2022-10-01T18:11:25.916Z,85.93
2022-10-01T18:13:53.422Z,86.12
2022-10-01T18:16:21.789Z,86.77
2022-10-01T18:21:46.363Z,87.00
2022-10-01T18:24:15.787Z,87.19
2022-10-01T18:26:45.650Z,87.65
2022-10-01T18:29:27.303Z,87.44
2022-10-01T18:32:01.748Z,87.63
2022-10-01T18:34:39.776Z,87.43
2022-10-01T18:37:22.563Z,86.84
2022-10-01T18:40:15.557Z,85.78
2022-10-01T18:42:46.558Z,85.48
2022-10-01T18:45:17.865Z,85.64
2022-10-01T18:48:11.499Z,85.41
2022-10-01T18:51:02.619Z,85.65
2022-10-01T18:53:30.258Z,86.15
2022-10-01T18:56:00.785Z,86.53
2022-10-01T18:58:46.801Z,86.51
2022-10-01T19:01:26.413Z,86.58
2022-10-01T19:04:07.520Z,86.77
2022-10-01T19:06:46.385Z,87.06
2022-10-01T19:09:37.939Z,86.83
2022-10-01T19:12:30.175Z,86.92
2022-10-01T19:14:57.533Z,86.84
2022-10-01T19:17:37.452Z,87.18
2022-10-01T19:20:14.042Z,87.11
2022-10-01T19:22:56.849Z,87.47
2022-10-01T19:25:36.843Z,87.43
2022-10-01T19:28:25.040Z,87.63
2022-10-01T19:31:08.994Z,87.11
2022-10-01T19:33:44.882Z,87.43
2022-10-01T19:36:23.309Z,87.43
2022-10-01T19:38:53.968Z,87.47
2022-10-01T19:41:40.396Z,87.74
2022-10-01T19:44:24.397Z,87.88
2022-10-01T19:46:56.430Z,87.63
2022-10-01T19:49:42.464Z,87.79
2022-10-01T19:52:18.248Z,87.76
2022-10-01T19:54:52.635Z,87.99
2022-10-01T19:57:25.946Z,88.28
2022-10-01T19:59:59.571Z,88.10
2022-10-01T20:02:47.080Z,87.75
2022-10-01T20:05:28.280Z,88.05
2022-10-01T20:08:28.619Z,87.23
2022-10-01T20:11:27.617Z,86.54
2022-10-01T20:14:06.211Z,85.92
2022-10-01T20:16:43.914Z,85.56
2022-10-01T20:19:24.853Z,84.74
2022-10-01T20:22:04.973Z,84.49
2022-10-01T20:24:41.867Z,83.71
2022-10-01T20:27:31.492Z,83.40
2022-10-01T20:30:05.004Z,83.51
2022-10-01T20:33:15.631Z,83.50
2022-10-01T20:36:22.353Z,82.89
2022-10-01T20:38:59.561Z,82.13
2022-10-01T20:41:30.081Z,82.11
2022-10-01T20:44:00.242Z,81.67
2022-10-01T20:46:44.394Z,81.59
2022-10-01T20:49:24.652Z,81.59
2022-10-01T20:52:24.356Z,81.28
2022-10-01T20:54:58.017Z,80.84
2022-10-01T20:57:34.580Z,81.09
2022-10-01T21:00:21.356Z,81.02
2022-10-01T21:03:18.193Z,79.94
2022-10-01T21:05:54.325Z,79.57
2022-10-01T21:08:53.775Z,77.10
2022-10-01T21:11:30.562Z,77.89
2022-10-01T21:13:58.066Z,77.28
2022-10-01T21:16:44.469Z,75.87
2022-10-01T21:19:33.678Z,75.20
2022-10-01T21:22:24.978Z,76.25
2022-10-01T21:25:10.232Z,76.44
2022-10-01T21:27:49.906Z,76.65
2022-10-01T21:30:20.007Z,75.21
2022-10-01T21:33:02.347Z,75.58
2022-10-01T21:35:54.099Z,75.55
2022-10-01T21:38:45.342Z,74.19
2022-10-01T21:41:25.220Z,74.09
2022-10-01T21:44:02.119Z,74.48
2022-10-01T21:46:44.728Z,75.65
2022-10-01T21:49:18.568Z,76.44
2022-10-01T21:52:04.177Z,76.74
2022-10-01T21:54:34.926Z,76.44
2022-10-01T21:57:26.955Z,77.12
2022-10-01T22:00:15.565Z,76.81
2022-10-01T22:03:05.569Z,77.38
2022-10-01T22:05:40.703Z,78.15
2022-10-01T22:08:45.992Z,78.42
2022-10-01T22:11:23.439Z,78.69
2022-10-01T22:13:54.987Z,78.86
2022-10-01T22:16:26.276Z,79.38
2022-10-01T22:19:04.124Z,79.40
2022-10-01T22:21:37.415Z,79.14
2022-10-01T22:24:10.813Z,79.03
2022-10-01T22:26:45.624Z,78.95
2022-10-01T22:29:21.935Z,79.16
2022-10-01T22:31:54.688Z,79.05
2022-10-01T22:34:26.044Z,79.53
2022-10-01T22:36:58.546Z,79.61
2022-10-01T22:39:30.846Z,79.75
2022-10-01T22:42:06.316Z,79.23
2022-10-01T22:44:36.956Z,78.96
2022-10-01T22:47:16.500Z,79.39
2022-10-01T22:50:06.162Z,79.43
2022-10-01T22:52:52.209Z,79.52
2022-10-01T22:55:31.413Z,79.53
2022-10-01T22:58:10.828Z,79.49
2022-10-01T23:01:03.665Z,79.21
2022-10-01T23:03:43.156Z,79.33
2022-10-01T23:06:29.479Z,79.08
2022-10-01T23:09:05.972Z,79.77
2022-10-01T23:11:50.208Z,79.70
2022-10-01T23:14:45.133Z,80.06
2022-10-01T23:17:20.228Z,80.28
2022-10-01T23:20:12.407Z,80.46
2022-10-01T23:23:01.985Z,80.64
2022-10-01T23:25:38.088Z,80.49
2022-10-01T23:28:14.812Z,80.26
2022-10-01T23:31:13.081Z,80.70
2022-10-01T23:34:08.974Z,81.05
2022-10-01T23:36:47.352Z,80.30
2022-10-01T23:39:41.162Z,80.38
2022-10-01T23:42:28.348Z,80.30
2022-10-01T23:45:04.989Z,80.46
2022-10-01T23:47:52.720Z,80.64
2022-10-01T23:50:50.044Z,80.55
2022-10-01T23:53:23.912Z,81.26
2022-10-01T23:56:24.826Z,81.39
2022-10-01T23:59:02.295Z,81.14
